sensor_id;sensor_type;location;lat;lon;timestamp;pressure;altitude;pressure_sealevel;temperature;humidity
84020;BME280;74102;49.084;13.694;2023-11-18T00:01:50;93698.63;;;1.99;61.68
84020;BME280;74102;49.084;13.694;2023-11-18T00:04:15;93707.09;;;2.01;62.12
84020;BME280;74102;49.084;13.694;2023-11-18T00:06:42;93717.16;;;1.93;62.24
84020;BME280;74102;49.084;13.694;2023-11-18T00:09:12;93726.75;;;1.91;62.31
84020;BME280;74102;49.084;13.694;2023-11-18T00:11:39;93714.13;;;1.99;62.66
84020;BME280;74102;49.084;13.694;2023-11-18T00:14:04;93720.69;;;2.03;62.58
84020;BME280;74102;49.084;13.694;2023-11-18T00:16:30;93725.41;;;2.09;62.49
84020;BME280;74102;49.084;13.694;2023-11-18T00:18:56;93723.78;;;2.08;62.61
84020;BME280;74102;49.084;13.694;2023-11-18T00:21:24;93732.00;;;2.13;62.72
84020;BME280;74102;49.084;13.694;2023-11-18T00:23:49;93735.16;;;2.17;62.78
84020;BME280;74102;49.084;13.694;2023-11-18T00:26:15;93737.91;;;2.27;62.47
84020;BME280;74102;49.084;13.694;2023-11-18T00:28:40;93746.09;;;2.32;62.48
84020;BME280;74102;49.084;13.694;2023-11-18T00:31:05;93742.38;;;2.36;62.58
84020;BME280;74102;49.084;13.694;2023-11-18T00:33:31;93751.53;;;2.40;62.62
84020;BME280;74102;49.084;13.694;2023-11-18T00:35:57;93754.34;;;2.48;62.52
84020;BME280;74102;49.084;13.694;2023-11-18T00:38:23;93750.94;;;2.47;62.64
84020;BME280;74102;49.084;13.694;2023-11-18T00:40:48;93754.03;;;2.52;62.68
84020;BME280;74102;49.084;13.694;2023-11-18T00:43:13;93752.97;;;2.55;62.55
84020;BME280;74102;49.084;13.694;2023-11-18T00:45:39;93757.06;;;2.57;62.60
84020;BME280;74102;49.084;13.694;2023-11-18T00:48:05;93761.41;;;2.57;62.77
84020;BME280;74102;49.084;13.694;2023-11-18T00:50:31;93771.31;;;2.63;62.67
84020;BME280;74102;49.084;13.694;2023-11-18T00:52:58;93779.28;;;2.71;62.70
84020;BME280;74102;49.084;13.694;2023-11-18T00:55:24;93770.63;;;2.72;62.64
84020;BME280;74102;49.084;13.694;2023-11-18T00:57:49;93770.16;;;2.78;62.53
84020;BME280;74102;49.084;13.694;2023-11-18T01:00:15;93769.00;;;2.82;62.50
84020;BME280;74102;49.084;13.694;2023-11-18T01:02:47;93777.19;;;2.87;62.38
84020;BME280;74102;49.084;13.694;2023-11-18T01:05:15;93767.34;;;2.92;62.54
84020;BME280;74102;49.084;13.694;2023-11-18T01:07:40;93767.91;;;2.96;62.27
84020;BME280;74102;49.084;13.694;2023-11-18T01:10:07;93761.81;;;2.97;62.40
84020;BME280;74102;49.084;13.694;2023-11-18T01:12:33;93758.06;;;3.01;62.35
84020;BME280;74102;49.084;13.694;2023-11-18T01:14:59;93763.13;;;3.02;62.04
84020;BME280;74102;49.084;13.694;2023-11-18T01:17:24;93761.72;;;2.98;62.27
84020;BME280;74102;49.084;13.694;2023-11-18T01:19:50;93760.66;;;3.01;62.28
84020;BME280;74102;49.084;13.694;2023-11-18T01:22:16;93759.38;;;2.95;62.42
84020;BME280;74102;49.084;13.694;2023-11-18T01:24:43;93754.91;;;2.97;62.60
84020;BME280;74102;49.084;13.694;2023-11-18T01:27:09;93759.59;;;3.03;62.33
84020;BME280;74102;49.084;13.694;2023-11-18T01:29:37;93758.91;;;3.01;62.50
84020;BME280;74102;49.084;13.694;2023-11-18T01:32:05;93751.75;;;3.05;62.17
84020;BME280;74102;49.084;13.694;2023-11-18T01:34:37;93748.69;;;3.11;62.15
84020;BME280;74102;49.084;13.694;2023-11-18T01:37:04;93746.69;;;3.14;62.12
84020;BME280;74102;49.084;13.694;2023-11-18T01:39:35;93751.28;;;3.11;61.84
84020;BME280;74102;49.084;13.694;2023-11-18T01:42:01;93749.47;;;3.11;62.21
84020;BME280;74102;49.084;13.694;2023-11-18T01:44:28;93751.59;;;3.06;62.21
84020;BME280;74102;49.084;13.694;2023-11-18T01:46:58;93748.78;;;3.09;61.96
84020;BME280;74102;49.084;13.694;2023-11-18T01:49:23;93752.31;;;3.08;62.01
84020;BME280;74102;49.084;13.694;2023-11-18T01:51:52;93754.44;;;3.03;62.30
84020;BME280;74102;49.084;13.694;2023-11-18T01:54:19;93760.19;;;3.07;62.21
84020;BME280;74102;49.084;13.694;2023-11-18T01:56:47;93753.13;;;3.09;62.20
84020;BME280;74102;49.084;13.694;2023-11-18T01:59:13;93760.53;;;3.13;62.08
84020;BME280;74102;49.084;13.694;2023-11-18T02:01:48;93762.06;;;3.16;62.40
84020;BME280;74102;49.084;13.694;2023-11-18T02:04:15;93772.28;;;3.17;62.23
84020;BME280;74102;49.084;13.694;2023-11-18T02:06:42;93773.69;;;3.22;62.11
84020;BME280;74102;49.084;13.694;2023-11-18T02:09:08;93775.56;;;3.19;62.13
84020;BME280;74102;49.084;13.694;2023-11-18T02:11:43;93770.16;;;3.11;62.70
84020;BME280;74102;49.084;13.694;2023-11-18T02:14:13;93767.56;;;3.11;62.68
84020;BME280;74102;49.084;13.694;2023-11-18T02:16:42;93768.03;;;3.05;62.80
84020;BME280;74102;49.084;13.694;2023-11-18T02:19:20;93768.50;;;2.99;62.52
84020;BME280;74102;49.084;13.694;2023-11-18T02:21:48;93765.69;;;3.02;62.63
84020;BME280;74102;49.084;13.694;2023-11-18T02:24:27;93774.16;;;3.04;62.51
84020;BME280;74102;49.084;13.694;2023-11-18T02:26:54;93774.88;;;3.06;62.44
84020;BME280;74102;49.084;13.694;2023-11-18T02:29:22;93777.34;;;3.08;62.04
84020;BME280;74102;49.084;13.694;2023-11-18T02:31:49;93773.22;;;3.05;62.60
84020;BME280;74102;49.084;13.694;2023-11-18T02:34:21;93775.19;;;3.02;62.81
84020;BME280;74102;49.084;13.694;2023-11-18T02:36:48;93767.13;;;3.06;62.46
84020;BME280;74102;49.084;13.694;2023-11-18T02:39:29;93774.63;;;3.09;62.85
84020;BME280;74102;49.084;13.694;2023-11-18T02:42:01;93774.53;;;3.11;62.69
84020;BME280;74102;49.084;13.694;2023-11-18T02:44:29;93781.81;;;3.17;62.80
84020;BME280;74102;49.084;13.694;2023-11-18T02:46:57;93777.47;;;3.17;62.41
84020;BME280;74102;49.084;13.694;2023-11-18T02:49:23;93774.97;;;3.16;62.81
84020;BME280;74102;49.084;13.694;2023-11-18T02:51:49;93773.56;;;3.12;63.07
84020;BME280;74102;49.084;13.694;2023-11-18T02:54:14;93766.19;;;3.07;63.54
84020;BME280;74102;49.084;13.694;2023-11-18T02:56:41;93760.78;;;3.10;63.23
84020;BME280;74102;49.084;13.694;2023-11-18T02:59:06;93769.00;;;3.15;63.02
84020;BME280;74102;49.084;13.694;2023-11-18T03:01:32;93776.16;;;3.12;63.25
84020;BME280;74102;49.084;13.694;2023-11-18T03:03:59;93769.47;;;3.09;63.43
84020;BME280;74102;49.084;13.694;2023-11-18T03:06:25;93771.34;;;3.07;63.54
84020;BME280;74102;49.084;13.694;2023-11-18T03:08:51;93777.22;;;3.09;63.62
84020;BME280;74102;49.084;13.694;2023-11-18T03:11:19;93776.28;;;3.10;63.73
84020;BME280;74102;49.084;13.694;2023-11-18T03:13:44;93782.03;;;3.14;63.64
84020;BME280;74102;49.084;13.694;2023-11-18T03:16:09;93773.31;;;3.15;63.44
84020;BME280;74102;49.084;13.694;2023-11-18T03:18:38;93768.41;;;3.12;63.67
84020;BME280;74102;49.084;13.694;2023-11-18T03:21:06;93771.81;;;3.12;63.40
84020;BME280;74102;49.084;13.694;2023-11-18T03:23:32;93777.69;;;3.14;63.52
84020;BME280;74102;49.084;13.694;2023-11-18T03:25:58;93775.69;;;3.18;63.74
84020;BME280;74102;49.084;13.694;2023-11-18T03:28:23;93780.97;;;3.16;63.43
84020;BME280;74102;49.084;13.694;2023-11-18T03:30:49;93775.69;;;3.18;63.24
84020;BME280;74102;49.084;13.694;2023-11-18T03:33:14;93777.47;;;3.17;63.25
84020;BME280;74102;49.084;13.694;2023-11-18T03:35:39;93783.56;;;3.16;63.34
84020;BME280;74102;49.084;13.694;2023-11-18T03:38:05;93785.44;;;3.14;63.59
84020;BME280;74102;49.084;13.694;2023-11-18T03:40:30;93786.38;;;3.13;63.62
84020;BME280;74102;49.084;13.694;2023-11-18T03:42:56;93786.63;;;3.10;63.44
84020;BME280;74102;49.084;13.694;2023-11-18T03:45:23;93792.50;;;3.01;63.91
84020;BME280;74102;49.084;13.694;2023-11-18T03:47:49;93788.13;;;3.02;64.05
84020;BME280;74102;49.084;13.694;2023-11-18T03:50:16;93799.50;;;2.99;64.27
84020;BME280;74102;49.084;13.694;2023-11-18T03:52:41;93785.91;;;2.97;64.23
84020;BME280;74102;49.084;13.694;2023-11-18T03:55:07;93797.88;;;2.98;64.19
84020;BME280;74102;49.084;13.694;2023-11-18T03:57:33;93801.63;;;2.94;64.31
84020;BME280;74102;49.084;13.694;2023-11-18T03:59:59;93797.88;;;2.98;64.37
84020;BME280;74102;49.084;13.694;2023-11-18T04:02:25;93797.88;;;2.98;64.13
84020;BME280;74102;49.084;13.694;2023-11-18T04:04:50;93796.72;;;2.91;64.56
84020;BME280;74102;49.084;13.694;2023-11-18T04:07:16;93800.22;;;2.90;64.61
84020;BME280;74102;49.084;13.694;2023-11-18T04:09:41;93801.88;;;2.91;64.77
84020;BME280;74102;49.084;13.694;2023-11-18T04:12:08;93799.38;;;2.90;64.57
84020;BME280;74102;49.084;13.694;2023-11-18T04:14:35;93802.78;;;2.90;64.57
84020;BME280;74102;49.084;13.694;2023-11-18T04:17:00;93801.63;;;2.94;64.49
84020;BME280;74102;49.084;13.694;2023-11-18T04:19:25;93806.53;;;2.86;64.74
84020;BME280;74102;49.084;13.694;2023-11-18T04:21:51;93795.41;;;2.86;64.71
84020;BME280;74102;49.084;13.694;2023-11-18T04:24:16;93802.09;;;2.88;65.11
84020;BME280;74102;49.084;13.694;2023-11-18T04:26:42;93798.22;;;2.94;64.79
84020;BME280;74102;49.084;13.694;2023-11-18T04:29:07;93810.09;;;2.96;64.95
84020;BME280;74102;49.084;13.694;2023-11-18T04:31:33;93815.25;;;2.96;65.02
84020;BME280;74102;49.084;13.694;2023-11-18T04:33:59;93811.50;;;3.00;64.99
84020;BME280;74102;49.084;13.694;2023-11-18T04:36:25;93813.97;;;3.02;64.80
84020;BME280;74102;49.084;13.694;2023-11-18T04:38:51;93818.56;;;2.98;65.18
84020;BME280;74102;49.084;13.694;2023-11-18T04:41:17;93814.31;;;2.97;64.76
84020;BME280;74102;49.084;13.694;2023-11-18T04:43:42;93806.34;;;3.00;64.94
84020;BME280;74102;49.084;13.694;2023-11-18T04:46:08;93819.03;;;3.03;64.83
84020;BME280;74102;49.084;13.694;2023-11-18T04:48:34;93814.56;;;3.05;64.85
84020;BME280;74102;49.084;13.694;2023-11-18T04:51:00;93815.50;;;3.04;64.70
84020;BME280;74102;49.084;13.694;2023-11-18T04:53:26;93819.38;;;3.10;65.10
84020;BME280;74102;49.084;13.694;2023-11-18T04:55:51;93824.22;;;3.14;65.03
84020;BME280;74102;49.084;13.694;2023-11-18T04:58:18;93824.09;;;3.16;65.06
84020;BME280;74102;49.084;13.694;2023-11-18T05:00:44;93823.75;;;3.21;64.83
84020;BME280;74102;49.084;13.694;2023-11-18T05:03:09;93826.78;;;3.26;64.82
84020;BME280;74102;49.084;13.694;2023-11-18T05:05:38;93829.13;;;3.29;64.71
84020;BME280;74102;49.084;13.694;2023-11-18T05:08:08;93828.44;;;3.27;65.21
84020;BME280;74102;49.084;13.694;2023-11-18T05:10:49;93831.50;;;3.32;64.92
84020;BME280;74102;49.084;13.694;2023-11-18T05:13:15;93827.16;;;3.32;64.61
84020;BME280;74102;49.084;13.694;2023-11-18T05:15:45;93827.03;;;3.34;64.95
84020;BME280;74102;49.084;13.694;2023-11-18T05:18:14;93832.91;;;3.36;65.00
84020;BME280;74102;49.084;13.694;2023-11-18T05:20:44;93831.00;;;3.38;64.67
84020;BME280;74102;49.084;13.694;2023-11-18T05:23:10;93841.13;;;3.41;64.80
84020;BME280;74102;49.084;13.694;2023-11-18T05:25:44;93836.19;;;3.38;65.16
84020;BME280;74102;49.084;13.694;2023-11-18T05:28:10;93843.00;;;3.39;64.91
84020;BME280;74102;49.084;13.694;2023-11-18T05:30:37;93841.94;;;3.41;64.54
84020;BME280;74102;49.084;13.694;2023-11-18T05:33:03;93837.59;;;3.42;64.43
84020;BME280;74102;49.084;13.694;2023-11-18T05:35:32;93848.53;;;3.45;64.51
84020;BME280;74102;49.084;13.694;2023-11-18T05:37:58;93845.59;;;3.50;64.39
84020;BME280;74102;49.084;13.694;2023-11-18T05:40:23;93842.31;;;3.48;64.76
84020;BME280;74102;49.084;13.694;2023-11-18T05:42:50;93851.00;;;3.47;64.53
84020;BME280;74102;49.084;13.694;2023-11-18T05:45:18;93849.94;;;3.49;64.61
84020;BME280;74102;49.084;13.694;2023-11-18T05:47:56;93847.22;;;3.51;64.69
84020;BME280;74102;49.084;13.694;2023-11-18T05:50:22;93852.63;;;3.48;64.85
84020;BME280;74102;49.084;13.694;2023-11-18T05:52:50;93853.47;;;3.48;64.67
84020;BME280;74102;49.084;13.694;2023-11-18T05:55:15;93850.78;;;3.50;64.67
84020;BME280;74102;49.084;13.694;2023-11-18T05:57:41;93855.72;;;3.53;65.01
84020;BME280;74102;49.084;13.694;2023-11-18T06:00:14;93855.47;;;3.56;65.00
84020;BME280;74102;49.084;13.694;2023-11-18T06:02:43;93860.66;;;3.56;64.93
84020;BME280;74102;49.084;13.694;2023-11-18T06:05:09;93867.69;;;3.54;65.14
84020;BME280;74102;49.084;13.694;2023-11-18T06:07:38;93859.00;;;3.55;64.53
84020;BME280;74102;49.084;13.694;2023-11-18T06:10:05;93856.66;;;3.52;64.79
84020;BME280;74102;49.084;13.694;2023-11-18T06:12:32;93869.56;;;3.52;64.96
84020;BME280;74102;49.084;13.694;2023-11-18T06:14:58;93869.34;;;3.55;64.76
84020;BME280;74102;49.084;13.694;2023-11-18T06:17:23;93870.75;;;3.59;64.74
84020;BME280;74102;49.084;13.694;2023-11-18T06:19:49;93880.63;;;3.65;64.73
84020;BME280;74102;49.084;13.694;2023-11-18T06:22:14;93873.81;;;3.64;64.58
84020;BME280;74102;49.084;13.694;2023-11-18T06:24:40;93882.97;;;3.68;64.48
84020;BME280;74102;49.084;13.694;2023-11-18T06:27:06;93884.38;;;3.61;64.68
84020;BME280;74102;49.084;13.694;2023-11-18T06:29:32;93884.50;;;3.59;64.92
84020;BME280;74102;49.084;13.694;2023-11-18T06:31:57;93882.50;;;3.63;64.83
84020;BME280;74102;49.084;13.694;2023-11-18T06:34:23;93883.31;;;3.63;64.79
84020;BME280;74102;49.084;13.694;2023-11-18T06:36:48;93882.28;;;3.66;64.76
84020;BME280;74102;49.084;13.694;2023-11-18T06:39:14;93885.56;;;3.68;64.62
84020;BME280;74102;49.084;13.694;2023-11-18T06:41:39;93878.50;;;3.70;64.64
84020;BME280;74102;49.084;13.694;2023-11-18T06:44:14;93870.63;;;3.71;64.45
84020;BME280;74102;49.084;13.694;2023-11-18T06:46:43;93869.56;;;3.74;64.42
84020;BME280;74102;49.084;13.694;2023-11-18T06:49:09;93868.63;;;3.75;64.47
84020;BME280;74102;49.084;13.694;2023-11-18T06:51:40;93878.84;;;3.77;64.42
84020;BME280;74102;49.084;13.694;2023-11-18T06:54:07;93876.97;;;3.79;64.56
84020;BME280;74102;49.084;13.694;2023-11-18T06:56:42;93883.69;;;3.81;64.50
84020;BME280;74102;49.084;13.694;2023-11-18T06:59:12;93878.59;;;3.80;64.38
84020;BME280;74102;49.084;13.694;2023-11-18T07:01:38;93879.91;;;3.74;64.48
84020;BME280;74102;49.084;13.694;2023-11-18T07:04:06;93880.50;;;3.78;64.58
84020;BME280;74102;49.084;13.694;2023-11-18T07:06:34;93893.31;;;3.79;64.19
84020;BME280;74102;49.084;13.694;2023-11-18T07:09:04;93888.84;;;3.81;64.59
84020;BME280;74102;49.084;13.694;2023-11-18T07:11:34;93896.63;;;3.81;64.33
84020;BME280;74102;49.084;13.694;2023-11-18T07:13:59;93899.31;;;3.80;64.64
84020;BME280;74102;49.084;13.694;2023-11-18T07:16:25;93898.72;;;3.87;64.28
84020;BME280;74102;49.084;13.694;2023-11-18T07:18:51;93902.72;;;3.91;64.31
84020;BME280;74102;49.084;13.694;2023-11-18T07:21:16;93900.13;;;3.91;64.18
84020;BME280;74102;49.084;13.694;2023-11-18T07:23:42;93904.13;;;3.95;64.39
84020;BME280;74102;49.084;13.694;2023-11-18T07:26:08;93903.88;;;3.98;64.45
84020;BME280;74102;49.084;13.694;2023-11-18T07:28:35;93912.59;;;3.97;64.24
84020;BME280;74102;49.084;13.694;2023-11-18T07:31:02;93908.84;;;4.01;64.10
84020;BME280;74102;49.084;13.694;2023-11-18T07:33:32;93912.34;;;4.00;64.19
84020;BME280;74102;49.084;13.694;2023-11-18T07:35:58;93909.41;;;4.05;64.14
84020;BME280;74102;49.084;13.694;2023-11-18T07:38:24;93924.81;;;4.06;63.97
84020;BME280;74102;49.084;13.694;2023-11-18T07:40:49;93913.78;;;4.04;63.76
84020;BME280;74102;49.084;13.694;2023-11-18T07:43:17;93924.13;;;4.04;63.68
84020;BME280;74102;49.084;13.694;2023-11-18T07:45:47;93922.00;;;4.09;63.91
84020;BME280;74102;49.084;13.694;2023-11-18T07:48:15;93924.09;;;4.15;63.81
84020;BME280;74102;49.084;13.694;2023-11-18T07:50:43;93927.03;;;4.22;64.00
84020;BME280;74102;49.084;13.694;2023-11-18T07:53:13;93934.44;;;4.27;63.47
84020;BME280;74102;49.084;13.694;2023-11-18T07:55:39;93926.31;;;4.31;63.68
84020;BME280;74102;49.084;13.694;2023-11-18T07:58:11;93926.88;;;4.35;64.04
84020;BME280;74102;49.084;13.694;2023-11-18T08:00:38;93932.53;;;4.40;63.44
84020;BME280;74102;49.084;13.694;2023-11-18T08:03:05;93932.16;;;4.44;63.60
84020;BME280;74102;49.084;13.694;2023-11-18T08:05:34;93942.38;;;4.57;64.84
84020;BME280;74102;49.084;13.694;2023-11-18T08:07:59;93942.72;;;4.63;64.28
84020;BME280;74102;49.084;13.694;2023-11-18T08:10:25;93938.47;;;4.62;64.04
84020;BME280;74102;49.084;13.694;2023-11-18T08:12:51;93948.97;;;4.61;64.04
84020;BME280;74102;49.084;13.694;2023-11-18T08:15:19;93941.44;;;4.58;63.69
84020;BME280;74102;49.084;13.694;2023-11-18T08:17:45;93944.28;;;4.55;63.72
84020;BME280;74102;49.084;13.694;2023-11-18T08:20:10;93952.88;;;4.55;63.25
84020;BME280;74102;49.084;13.694;2023-11-18T08:22:41;93951.09;;;4.56;63.53
84020;BME280;74102;49.084;13.694;2023-11-18T08:25:12;93947.78;;;4.54;63.61
84020;BME280;74102;49.084;13.694;2023-11-18T08:27:39;93958.75;;;4.57;63.43
84020;BME280;74102;49.084;13.694;2023-11-18T08:30:06;93961.31;;;4.68;63.90
84020;BME280;74102;49.084;13.694;2023-11-18T08:32:37;93956.56;;;4.73;63.51
84020;BME280;74102;49.084;13.694;2023-11-18T08:35:05;93955.06;;;4.71;63.09
84020;BME280;74102;49.084;13.694;2023-11-18T08:37:31;93956.94;;;4.69;63.00
84020;BME280;74102;49.084;13.694;2023-11-18T08:39:57;93968.69;;;4.73;63.03
84020;BME280;74102;49.084;13.694;2023-11-18T08:42:22;93966.34;;;4.81;63.18
84020;BME280;74102;49.084;13.694;2023-11-18T08:44:49;93972.09;;;4.85;63.18
84020;BME280;74102;49.084;13.694;2023-11-18T08:47:14;93976.22;;;4.87;62.91
84020;BME280;74102;49.084;13.694;2023-11-18T08:49:42;93979.25;;;4.92;63.02
84020;BME280;74102;49.084;13.694;2023-11-18T08:52:11;93983.25;;;4.96;62.63
84020;BME280;74102;49.084;13.694;2023-11-18T08:54:38;93977.81;;;4.99;62.49
84020;BME280;74102;49.084;13.694;2023-11-18T08:57:24;93987.00;;;5.03;62.54
84020;BME280;74102;49.084;13.694;2023-11-18T08:59:51;93978.25;;;5.04;62.35
84020;BME280;74102;49.084;13.694;2023-11-18T09:02:19;93986.41;;;5.00;62.73
84020;BME280;74102;49.084;13.694;2023-11-18T09:04:52;93990.78;;;4.99;62.49
84020;BME280;74102;49.084;13.694;2023-11-18T09:07:20;93990.78;;;4.99;62.48
84020;BME280;74102;49.084;13.694;2023-11-18T09:09:47;93983.69;;;5.01;62.39
84020;BME280;74102;49.084;13.694;2023-11-18T09:12:16;93987.00;;;5.03;62.29
84020;BME280;74102;49.084;13.694;2023-11-18T09:14:43;93993.56;;;5.07;62.47
84020;BME280;74102;49.084;13.694;2023-11-18T09:17:09;93988.25;;;5.09;62.09
84020;BME280;74102;49.084;13.694;2023-11-18T09:19:35;93999.31;;;5.11;62.23
84020;BME280;74102;49.084;13.694;2023-11-18T09:22:00;93993.09;;;5.13;62.03
84020;BME280;74102;49.084;13.694;2023-11-18T09:24:26;93994.03;;;5.12;62.20
84020;BME280;74102;49.084;13.694;2023-11-18T09:26:51;93987.06;;;5.13;62.21
84020;BME280;74102;49.084;13.694;2023-11-18T09:29:17;93982.47;;;5.16;62.07
84020;BME280;74102;49.084;13.694;2023-11-18T09:31:47;93981.25;;;5.20;62.09
84020;BME280;74102;49.084;13.694;2023-11-18T09:34:18;93985.50;;;5.21;62.06
84020;BME280;74102;49.084;13.694;2023-11-18T09:36:53;93974.06;;;5.24;62.13
84020;BME280;74102;49.084;13.694;2023-11-18T09:39:18;93963.56;;;5.25;61.97
84020;BME280;74102;49.084;13.694;2023-11-18T09:41:57;93957.19;;;5.29;62.04
84020;BME280;74102;49.084;13.694;2023-11-18T09:44:24;93957.63;;;5.35;62.15
84020;BME280;74102;49.084;13.694;2023-11-18T09:46:57;93960.22;;;5.35;62.06
84020;BME280;74102;49.084;13.694;2023-11-18T09:49:45;93963.25;;;5.40;61.99
84020;BME280;74102;49.084;13.694;2023-11-18T09:52:18;93951.69;;;5.44;61.83
84020;BME280;74102;49.084;13.694;2023-11-18T09:55:04;93968.75;;;5.46;61.92
84020;BME280;74102;49.084;13.694;2023-11-18T09:57:43;93968.25;;;5.52;62.12
84020;BME280;74102;49.084;13.694;2023-11-18T10:00:15;93974.00;;;5.56;62.06
84020;BME280;74102;49.084;13.694;2023-11-18T10:02:58;93980.59;;;5.60;61.65
84020;BME280;74102;49.084;13.694;2023-11-18T10:05:27;93985.53;;;5.63;61.80
84020;BME280;74102;49.084;13.694;2023-11-18T10:07:55;93984.19;;;5.68;61.63
84020;BME280;74102;49.084;13.694;2023-11-18T10:10:45;93979.19;;;5.76;61.35
84020;BME280;74102;49.084;13.694;2023-11-18T10:13:11;93976.91;;;5.83;61.36
84020;BME280;74102;49.084;13.694;2023-11-18T10:15:57;93984.91;;;5.91;60.94
84020;BME280;74102;49.084;13.694;2023-11-18T10:18:23;93980.56;;;6.01;60.96
84020;BME280;74102;49.084;13.694;2023-11-18T10:20:49;93979.53;;;6.13;60.72
84020;BME280;74102;49.084;13.694;2023-11-18T10:23:24;93987.78;;;6.18;60.64
84020;BME280;74102;49.084;13.694;2023-11-18T10:25:54;93983.00;;;6.23;60.17
84020;BME280;74102;49.084;13.694;2023-11-18T10:28:31;93980.03;;;6.28;60.19
84020;BME280;74102;49.084;13.694;2023-11-18T10:31:04;93981.53;;;6.30;59.92
84020;BME280;74102;49.084;13.694;2023-11-18T10:33:39;93991.34;;;6.27;59.16
84020;BME280;74102;49.084;13.694;2023-11-18T10:36:16;93995.03;;;6.24;59.13
84020;BME280;74102;49.084;13.694;2023-11-18T10:38:48;93991.75;;;6.22;59.95
84020;BME280;74102;49.084;13.694;2023-11-18T10:41:18;93986.69;;;6.21;59.70
84020;BME280;74102;49.084;13.694;2023-11-18T10:43:45;93992.03;;;6.19;59.29
84020;BME280;74102;49.084;13.694;2023-11-18T10:46:14;93991.31;;;6.17;58.95
84020;BME280;74102;49.084;13.694;2023-11-18T10:48:44;93986.38;;;6.14;58.92
84020;BME280;74102;49.084;13.694;2023-11-18T10:51:15;93988.97;;;6.14;58.56
84020;BME280;74102;49.084;13.694;2023-11-18T10:53:42;93991.06;;;6.20;58.67
84020;BME280;74102;49.084;13.694;2023-11-18T10:56:24;93982.88;;;6.25;57.75
84020;BME280;74102;49.084;13.694;2023-11-18T10:59:06;93983.72;;;6.25;57.79
84020;BME280;74102;49.084;13.694;2023-11-18T11:01:36;93975.66;;;6.28;58.41
84020;BME280;74102;49.084;13.694;2023-11-18T11:04:13;93963.34;;;6.30;57.76
84020;BME280;74102;49.084;13.694;2023-11-18T11:06:44;93965.69;;;6.33;58.34
84020;BME280;74102;49.084;13.694;2023-11-18T11:09:25;93967.34;;;6.34;57.83
84020;BME280;74102;49.084;13.694;2023-11-18T11:11:55;93976.59;;;6.27;57.75
84020;BME280;74102;49.084;13.694;2023-11-18T11:14:34;93975.66;;;6.28;57.59
84020;BME280;74102;49.084;13.694;2023-11-18T11:17:06;93981.53;;;6.30;57.06
84020;BME280;74102;49.084;13.694;2023-11-18T11:20:03;93978.25;;;6.28;56.67
84020;BME280;74102;49.084;13.694;2023-11-18T11:28:54;93985.06;;;6.29;56.72
84020;BME280;74102;49.084;13.694;2023-11-18T11:31:21;93985.06;;;6.29;57.09
84020;BME280;74102;49.084;13.694;2023-11-18T11:34:02;93981.78;;;6.27;56.74
84020;BME280;74102;49.084;13.694;2023-11-18T11:36:51;93986.16;;;6.27;57.01
84020;BME280;74102;49.084;13.694;2023-11-18T11:39:18;93992.88;;;6.29;57.45
84020;BME280;74102;49.084;13.694;2023-11-18T11:41:52;93979.13;;;6.39;57.09
84020;BME280;74102;49.084;13.694;2023-11-18T11:44:17;93979.72;;;6.61;57.04
84020;BME280;74102;49.084;13.694;2023-11-18T11:46:49;93963.66;;;6.96;57.17
84020;BME280;74102;49.084;13.694;2023-11-18T11:49:20;93960.19;;;7.72;57.18
84020;BME280;74102;49.084;13.694;2023-11-18T11:51:48;93962.22;;;8.62;56.41
84020;BME280;74102;49.084;13.694;2023-11-18T11:54:22;93960.88;;;9.02;55.11
84020;BME280;74102;49.084;13.694;2023-11-18T11:56:50;93953.75;;;9.22;55.42
84020;BME280;74102;49.084;13.694;2023-11-18T12:02:04;93949.47;;;9.04;54.60
84020;BME280;74102;49.084;13.694;2023-11-18T12:04:33;93953.94;;;8.76;54.33
84020;BME280;74102;49.084;13.694;2023-11-18T12:06:59;93955.88;;;8.46;54.50
84020;BME280;74102;49.084;13.694;2023-11-18T12:09:31;93963.19;;;8.24;53.95
84020;BME280;74102;49.084;13.694;2023-11-18T12:12:14;93964.09;;;8.05;54.56
84020;BME280;74102;49.084;13.694;2023-11-18T12:14:51;93964.53;;;7.91;54.22
84020;BME280;74102;49.084;13.694;2023-11-18T12:17:25;93962.22;;;7.78;54.82
84020;BME280;74102;49.084;13.694;2023-11-18T12:19:57;93959.38;;;7.72;54.89
84020;BME280;74102;49.084;13.694;2023-11-18T12:23:03;93948.03;;;8.00;54.26
84020;BME280;74102;49.084;13.694;2023-11-18T12:25:43;93959.16;;;8.02;54.23
84020;BME280;74102;49.084;13.694;2023-11-18T12:28:17;93955.28;;;8.06;53.45
84020;BME280;74102;49.084;13.694;2023-11-18T12:30:47;93957.19;;;8.14;54.06
84020;BME280;74102;49.084;13.694;2023-11-18T12:33:24;93959.63;;;8.34;54.16
84020;BME280;74102;49.084;13.694;2023-11-18T12:41:36;93956.03;;;10.04;51.26
84020;BME280;74102;49.084;13.694;2023-11-18T12:49:14;93928.69;;;13.15;46.55
84020;BME280;74102;49.084;13.694;2023-11-18T12:51:42;93927.31;;;13.50;45.32
84020;BME280;74102;49.084;13.694;2023-11-18T12:54:09;93921.16;;;13.80;45.12
84020;BME280;74102;49.084;13.694;2023-11-18T12:56:37;93910.13;;;13.39;45.31
84020;BME280;74102;49.084;13.694;2023-11-18T12:59:04;93908.16;;;12.80;45.93
84020;BME280;74102;49.084;13.694;2023-11-18T13:01:32;93901.97;;;13.34;44.89
84020;BME280;74102;49.084;13.694;2023-11-18T13:04:02;93898.13;;;13.22;43.44
84020;BME280;74102;49.084;13.694;2023-11-18T13:06:28;93891.38;;;12.89;44.58
84020;BME280;74102;49.084;13.694;2023-11-18T13:08:54;93895.88;;;12.80;44.01
84020;BME280;74102;49.084;13.694;2023-11-18T13:11:23;93897.53;;;12.34;44.38
84020;BME280;74102;49.084;13.694;2023-11-18T13:13:52;93893.16;;;12.10;44.55
84020;BME280;74102;49.084;13.694;2023-11-18T13:16:18;93885.19;;;12.04;44.61
84020;BME280;74102;49.084;13.694;2023-11-18T13:18:45;93886.50;;;11.76;44.93
84020;BME280;74102;49.084;13.694;2023-11-18T13:21:19;93877.00;;;11.50;44.30
84020;BME280;74102;49.084;13.694;2023-11-18T13:23:47;93883.88;;;11.68;44.04
84020;BME280;74102;49.084;13.694;2023-11-18T13:26:14;93877.00;;;11.83;43.65
84020;BME280;74102;49.084;13.694;2023-11-18T13:28:39;93880.28;;;11.44;44.22